createdAt,value
2023-05-05T00:01:25.270Z,101978.59
2023-05-05T00:03:52.604Z,101973.47
2023-05-05T00:06:19.665Z,101973.28
2023-05-05T00:08:47.228Z,101980.03
2023-05-05T00:11:13.887Z,101974.03
2023-05-05T00:13:40.759Z,101967.06
2023-05-05T00:16:07.736Z,101953.28
2023-05-05T00:18:34.514Z,101957.44
2023-05-05T00:21:01.652Z,101958.13
2023-05-05T00:23:28.391Z,101959.56
2023-05-05T00:25:55.077Z,101960.19
2023-05-05T00:28:21.995Z,101957.72
2023-05-05T00:30:48.803Z,101957.06
2023-05-05T00:33:15.878Z,101956.19
2023-05-05T00:35:42.753Z,101963.09
2023-05-05T00:38:09.548Z,101956.28
2023-05-05T00:40:37.903Z,101963.00
2023-05-05T00:43:05.290Z,101960.25
2023-05-05T00:45:32.326Z,101959.25
2023-05-05T00:48:00.892Z,101948.19
2023-05-05T00:50:30.050Z,101956.06
2023-05-05T00:53:00.967Z,101952.16
2023-05-05T00:55:28.560Z,101951.44
2023-05-05T00:57:56.918Z,101953.72
2023-05-05T01:00:23.817Z,101952.69
2023-05-05T01:02:51.960Z,101953.84
2023-05-05T01:05:20.251Z,101954.06
2023-05-05T01:08:09.514Z,101955.94
2023-05-05T01:10:41.614Z,101957.31
2023-05-05T01:13:20.646Z,101959.00
2023-05-05T01:15:53.556Z,101948.97
2023-05-05T01:18:46.460Z,101949.13
2023-05-05T01:21:19.093Z,101938.84
2023-05-05T01:24:28.302Z,101949.31
2023-05-05T01:27:17.170Z,101939.09
2023-05-05T01:30:02.376Z,101939.00
2023-05-05T01:32:33.847Z,101938.94
2023-05-05T01:35:03.280Z,101943.06
2023-05-05T01:37:46.112Z,101946.47
2023-05-05T01:40:15.672Z,101955.00
2023-05-05T01:42:44.322Z,101963.47
2023-05-05T01:45:13.051Z,101958.28
2023-05-05T01:47:42.108Z,101961.84
2023-05-05T01:50:11.530Z,101959.03
2023-05-05T01:52:40.161Z,101953.03
2023-05-05T01:55:09.504Z,101955.84
2023-05-05T01:57:38.584Z,101959.28
2023-05-05T02:00:07.409Z,101954.13
2023-05-05T02:02:45.248Z,101957.72
2023-05-05T02:05:14.318Z,101959.44
2023-05-05T02:07:41.776Z,101960.47
2023-05-05T02:10:12.211Z,101957.81
2023-05-05T02:12:40.948Z,101962.91
2023-05-05T02:15:10.095Z,101958.50
2023-05-05T02:17:37.671Z,101957.66
2023-05-05T02:20:06.979Z,101959.34
2023-05-05T02:22:34.043Z,101958.28
2023-05-05T02:25:01.137Z,101955.25
2023-05-05T02:27:30.502Z,101953.56
2023-05-05T02:30:01.680Z,101956.31
2023-05-05T02:32:35.154Z,101952.94
2023-05-05T02:35:12.533Z,101946.06
2023-05-05T02:37:45.224Z,101948.78
2023-05-05T02:40:15.290Z,101946.34
2023-05-05T02:42:46.965Z,101948.72
2023-05-05T02:45:20.094Z,101944.19
2023-05-05T02:47:48.744Z,101943.00
2023-05-05T02:50:15.839Z,101941.19
2023-05-05T02:52:51.499Z,101941.19
2023-05-05T02:55:20.477Z,101939.53
2023-05-05T02:57:58.911Z,101935.38
2023-05-05T03:00:31.956Z,101934.47
2023-05-05T03:03:17.828Z,101938.88
2023-05-05T03:06:18.257Z,101925.22
2023-05-05T03:09:20.803Z,101929.72
2023-05-05T03:11:59.073Z,101929.50
2023-05-05T03:14:30.063Z,101919.03
2023-05-05T03:17:00.582Z,101928.66
2023-05-05T03:19:29.662Z,101926.19
2023-05-05T03:22:02.901Z,101925.06
2023-05-05T03:24:30.229Z,101927.53
2023-05-05T03:27:03.203Z,101925.06
2023-05-05T03:29:34.689Z,101925.56
2023-05-05T03:32:03.256Z,101920.84
2023-05-05T03:34:30.227Z,101920.66
2023-05-05T03:36:59.060Z,101924.09
2023-05-05T03:39:25.999Z,101909.34
2023-05-05T03:41:53.549Z,101917.16
2023-05-05T03:44:22.071Z,101918.97
2023-05-05T03:46:48.880Z,101910.63
2023-05-05T03:49:16.800Z,101907.16
2023-05-05T03:51:45.780Z,101909.72
2023-05-05T03:54:12.714Z,101915.03
2023-05-05T03:56:39.866Z,101914.25
2023-05-05T03:59:06.902Z,101913.50
2023-05-05T04:01:35.283Z,101912.78
2023-05-05T04:04:02.241Z,101912.78
2023-05-05T04:06:29.037Z,101917.19
2023-05-05T04:08:55.914Z,101915.06
2023-05-05T04:11:22.759Z,101915.72
2023-05-05T04:13:50.482Z,101920.84
2023-05-05T04:16:18.698Z,101920.06
2023-05-05T04:18:46.121Z,101917.63
2023-05-05T04:21:13.169Z,101920.19
2023-05-05T04:23:40.779Z,101925.31
2023-05-05T04:26:07.542Z,101925.91
2023-05-05T04:28:34.407Z,101926.66
2023-05-05T04:31:02.590Z,101929.31
2023-05-05T04:33:31.274Z,101924.94
2023-05-05T04:35:58.474Z,101928.28
2023-05-05T04:38:25.922Z,101929.41
2023-05-05T04:40:53.324Z,101926.78
2023-05-05T04:43:20.251Z,101937.03
2023-05-05T04:45:55.132Z,101937.97
2023-05-05T04:48:25.067Z,101937.97
2023-05-05T04:50:52.070Z,101924.94
2023-05-05T04:53:18.787Z,101938.63
2023-05-05T04:55:45.720Z,101938.53
2023-05-05T04:58:12.456Z,101942.19
2023-05-05T05:00:39.233Z,101943.25
2023-05-05T05:03:06.474Z,101943.44
2023-05-05T05:05:33.264Z,101947.00
2023-05-05T05:08:00.047Z,101942.03
2023-05-05T05:10:27.044Z,101948.06
2023-05-05T05:12:53.881Z,101947.34
2023-05-05T05:15:20.779Z,101957.75
2023-05-05T05:17:49.875Z,101957.84
2023-05-05T05:20:17.355Z,101962.22
2023-05-05T05:22:44.067Z,101964.16
2023-05-05T05:25:15.535Z,101972.81
2023-05-05T05:27:43.023Z,101971.19
2023-05-05T05:30:11.054Z,101970.34
2023-05-05T05:32:37.908Z,101971.38
2023-05-05T05:35:05.776Z,101969.00
2023-05-05T05:37:35.245Z,101970.84
2023-05-05T05:40:05.125Z,101970.16
2023-05-05T05:42:33.846Z,101972.19
2023-05-05T05:45:00.994Z,101968.00
2023-05-05T05:47:28.226Z,101969.00
2023-05-05T05:49:56.323Z,101968.25
2023-05-05T05:52:23.219Z,101965.13
2023-05-05T05:54:50.370Z,101965.38
2023-05-05T05:57:17.197Z,101968.13
2023-05-05T05:59:43.972Z,101962.25
2023-05-05T06:02:11.013Z,101960.66
2023-05-05T06:04:37.893Z,101959.16
2023-05-05T06:07:04.790Z,101968.78
2023-05-05T06:09:34.287Z,101970.66
2023-05-05T06:12:03.732Z,101977.72
2023-05-05T06:14:31.922Z,101977.16
2023-05-05T06:16:58.735Z,101973.16
2023-05-05T06:19:30.612Z,101974.09
2023-05-05T06:21:57.466Z,101974.19
2023-05-05T06:24:24.128Z,101976.81
2023-05-05T06:26:50.927Z,101983.84
2023-05-05T06:29:17.694Z,101977.78
2023-05-05T06:31:44.474Z,101985.66
2023-05-05T06:34:11.157Z,101984.13
2023-05-05T06:36:37.893Z,101979.84
2023-05-05T06:39:04.587Z,101986.78
2023-05-05T06:41:31.314Z,101986.09
2023-05-05T06:43:58.083Z,101981.81
2023-05-05T06:46:25.270Z,101979.53
2023-05-05T06:48:52.032Z,101983.91
2023-05-05T06:51:18.930Z,101982.31
2023-05-05T06:53:45.763Z,101986.69
2023-05-05T06:56:12.571Z,101985.13
2023-05-05T06:58:39.311Z,101985.31
2023-05-05T07:01:06.153Z,101989.84
2023-05-05T07:03:32.866Z,101989.03
2023-05-05T07:05:59.667Z,101987.38
2023-05-05T07:08:26.323Z,101988.19
2023-05-05T07:10:53.129Z,101990.75
2023-05-05T07:13:19.939Z,101981.28
2023-05-05T07:15:46.776Z,101995.34
2023-05-05T07:18:14.418Z,101986.03
2023-05-05T07:20:41.371Z,101989.47
2023-05-05T07:23:08.206Z,101995.56
2023-05-05T07:25:35.011Z,101993.94
2023-05-05T07:28:01.936Z,101992.22
2023-05-05T07:30:28.735Z,101997.66
2023-05-05T07:32:55.633Z,101995.38
2023-05-05T07:35:23.182Z,101999.03
2023-05-05T07:37:50.100Z,101999.22
2023-05-05T07:40:16.917Z,102000.88
2023-05-05T07:42:43.653Z,102001.78
2023-05-05T07:45:11.567Z,102006.03
2023-05-05T07:47:38.397Z,102006.03
2023-05-05T07:50:08.474Z,101991.63
2023-05-05T07:52:46.774Z,101996.97
2023-05-05T07:55:18.509Z,102001.28
2023-05-05T07:57:45.205Z,101996.22
2023-05-05T08:00:13.550Z,101989.28
2023-05-05T08:02:41.340Z,101986.69
2023-05-05T08:05:09.264Z,101989.50
2023-05-05T08:07:41.030Z,101984.38
2023-05-05T08:10:12.156Z,101976.63
2023-05-05T08:12:40.037Z,101978.38
2023-05-05T08:15:07.795Z,101977.56
2023-05-05T08:17:52.995Z,101981.19
2023-05-05T08:20:20.674Z,101975.28
2023-05-05T08:22:50.003Z,101976.25
2023-05-05T08:25:16.833Z,101972.84
2023-05-05T08:27:44.690Z,101962.56
2023-05-05T08:30:13.226Z,101967.69
2023-05-05T08:32:40.163Z,101966.09
2023-05-05T08:35:07.724Z,101967.00
2023-05-05T08:37:34.892Z,101969.72
2023-05-05T08:40:01.767Z,101969.81
2023-05-05T08:42:38.049Z,101969.81
2023-05-05T08:45:06.795Z,101963.84
2023-05-05T08:47:34.954Z,101967.44
2023-05-05T08:50:02.342Z,101972.59
2023-05-05T08:52:32.766Z,101976.09
2023-05-05T08:55:13.560Z,101979.56
2023-05-05T08:57:46.445Z,101977.88
2023-05-05T09:00:14.150Z,101975.22
2023-05-05T09:02:42.940Z,101973.47
2023-05-05T09:05:10.557Z,101981.22
2023-05-05T09:07:38.417Z,101976.00
2023-05-05T09:10:05.886Z,101977.72
2023-05-05T09:12:32.899Z,101980.28
2023-05-05T09:15:03.579Z,101985.50
2023-05-05T09:17:30.535Z,101982.91
2023-05-05T09:20:04.767Z,101983.00
2023-05-05T09:22:36.947Z,101972.69
2023-05-05T09:25:05.171Z,101976.19
2023-05-05T09:27:36.341Z,101974.53
2023-05-05T09:30:04.898Z,101978.88
2023-05-05T09:32:43.939Z,101980.56
2023-05-05T09:35:10.938Z,101980.63
2023-05-05T09:37:38.674Z,101978.94
2023-05-05T09:40:08.718Z,101989.38
2023-05-05T09:42:37.174Z,101985.94
2023-05-05T09:45:24.234Z,101985.06
2023-05-05T09:47:52.016Z,101982.47
2023-05-05T09:50:22.422Z,101984.22
2023-05-05T09:52:59.175Z,101976.47
2023-05-05T09:55:26.052Z,101974.75
2023-05-05T09:57:53.266Z,101975.56
2023-05-05T10:00:20.741Z,101979.00
2023-05-05T10:02:47.611Z,101975.56
2023-05-05T10:05:19.100Z,101977.28
2023-05-05T10:07:47.677Z,101975.56
2023-05-05T10:10:16.794Z,101972.97
2023-05-05T10:12:46.848Z,101976.50
2023-05-05T10:15:15.487Z,101969.59
2023-05-05T10:20:20.667Z,101970.56
2023-05-05T10:22:59.869Z,101961.91
2023-05-05T10:25:33.285Z,101965.41
2023-05-05T10:28:01.467Z,101967.19
2023-05-05T10:30:32.278Z,101960.31
2023-05-05T10:35:52.740Z,101963.78
2023-05-05T10:38:20.831Z,101953.38
2023-05-05T10:40:48.857Z,101959.47
2023-05-05T10:43:15.827Z,101956.88
2023-05-05T10:45:43.327Z,101959.50
2023-05-05T10:48:22.914Z,101953.44
2023-05-05T10:50:54.071Z,101949.13
2023-05-05T10:53:28.874Z,101948.22
2023-05-05T10:56:21.635Z,101944.78
2023-05-05T10:58:59.227Z,101935.28
2023-05-05T11:01:36.311Z,101947.38
2023-05-05T11:04:23.321Z,101943.06
2023-05-05T11:07:08.790Z,101937.84
2023-05-05T11:09:54.980Z,101937.00
2023-05-05T11:12:22.044Z,101936.13
2023-05-05T11:15:33.609Z,101935.28
2023-05-05T11:18:05.792Z,101930.94
2023-05-05T11:20:37.109Z,101925.72
2023-05-05T11:23:03.975Z,101922.22
2023-05-05T11:25:37.212Z,101920.50
2023-05-05T11:28:14.567Z,101920.50
2023-05-05T11:30:56.931Z,101920.50
2023-05-05T11:33:29.492Z,101917.03
2023-05-05T11:36:02.710Z,101909.25
2023-05-05T11:38:52.422Z,101909.25
2023-05-05T11:41:32.617Z,101910.13
2023-05-05T11:44:16.650Z,101917.06
2023-05-05T11:46:52.624Z,101917.94
2023-05-05T11:49:31.572Z,101908.41
2023-05-05T11:52:07.362Z,101906.63
2023-05-05T11:54:50.139Z,101905.75
2023-05-05T11:57:21.205Z,101905.75
2023-05-05T12:00:03.612Z,101904.00
2023-05-05T12:02:31.573Z,101898.84
2023-05-05T12:04:59.869Z,101895.38
2023-05-05T12:07:28.966Z,101898.84
2023-05-05T12:09:56.087Z,101904.06
2023-05-05T12:12:35.207Z,101898.84
2023-05-05T12:15:02.332Z,101900.56
2023-05-05T12:17:39.836Z,101900.59
2023-05-05T12:20:07.648Z,101900.59
2023-05-05T12:22:34.725Z,101899.72
2023-05-05T12:25:04.218Z,101897.13
2023-05-05T12:27:31.092Z,101905.75
2023-05-05T12:30:11.743Z,101898.81
2023-05-05T12:32:39.277Z,101906.59
2023-05-05T12:35:08.071Z,101905.72
2023-05-05T12:37:35.727Z,101898.78
2023-05-05T12:40:03.656Z,101908.31
2023-05-05T12:42:32.308Z,101906.56
2023-05-05T12:44:59.092Z,101904.88
2023-05-05T12:47:31.529Z,101904.84
2023-05-05T12:50:00.325Z,101903.06
2023-05-05T12:52:42.474Z,101894.41
2023-05-05T12:55:10.510Z,101900.50
2023-05-05T12:57:37.708Z,101903.13
2023-05-05T13:00:18.162Z,101892.72
2023-05-05T13:02:45.141Z,101895.31
2023-05-05T13:05:12.034Z,101884.03
2023-05-05T13:07:51.870Z,101882.28
2023-05-05T13:10:18.839Z,101876.19
2023-05-05T13:12:45.590Z,101879.72
2023-05-05T13:15:13.883Z,101867.59
2023-05-05T13:17:40.711Z,101867.56
2023-05-05T13:20:10.051Z,101869.25
2023-05-05T13:22:38.149Z,101870.94
2023-05-05T13:25:05.291Z,101862.28
2023-05-05T13:27:32.245Z,101864.03
2023-05-05T13:29:59.124Z,101854.44
2023-05-05T13:32:26.087Z,101859.66
2023-05-05T13:34:53.119Z,101853.53
2023-05-05T13:37:20.092Z,101862.19
2023-05-05T13:39:46.819Z,101855.25
2023-05-05T13:42:13.680Z,101857.03
2023-05-05T13:44:40.573Z,101849.25
2023-05-05T13:47:07.613Z,101850.16
2023-05-05T13:49:35.815Z,101832.88
2023-05-05T13:52:03.186Z,101841.53
2023-05-05T13:54:29.893Z,101837.28
2023-05-05T13:56:57.892Z,101829.44
2023-05-05T13:59:25.899Z,101831.97
2023-05-05T14:01:52.761Z,101824.09
2023-05-05T14:04:19.515Z,101823.22
2023-05-05T14:06:46.328Z,101820.63
2023-05-05T14:09:13.277Z,101817.16
2023-05-05T14:11:40.074Z,101819.72
2023-05-05T14:14:07.022Z,101817.22
2023-05-05T14:16:33.905Z,101821.53
2023-05-05T14:19:01.900Z,101817.22
2023-05-05T14:21:28.670Z,101809.41
2023-05-05T14:23:55.439Z,101808.53
2023-05-05T14:26:22.262Z,101811.06
2023-05-05T14:28:50.504Z,101800.66
2023-05-05T14:31:17.957Z,101811.13
2023-05-05T14:33:44.722Z,101805.91
2023-05-05T14:36:11.654Z,101796.41
2023-05-05T14:38:38.493Z,101800.72
2023-05-05T14:41:05.601Z,101802.41
2023-05-05T14:43:32.698Z,101799.88
2023-05-05T14:46:00.467Z,101795.56
2023-05-05T14:48:27.879Z,101795.50
2023-05-05T14:50:54.704Z,101793.72
2023-05-05T14:53:21.447Z,101790.25
2023-05-05T14:55:48.320Z,101788.56
2023-05-05T14:58:15.177Z,101793.78
2023-05-05T15:00:42.076Z,101798.13
2023-05-05T15:03:08.980Z,101785.97
2023-05-05T15:05:35.773Z,101791.13
2023-05-05T15:08:02.523Z,101790.25
2023-05-05T15:10:29.470Z,101790.25
2023-05-05T15:12:56.547Z,101799.78
2023-05-05T15:15:26.361Z,101789.34
2023-05-05T15:17:53.184Z,101784.16
2023-05-05T15:20:19.891Z,101788.53
2023-05-05T15:22:49.033Z,101783.28
2023-05-05T15:25:16.527Z,101792.06
2023-05-05T15:28:08.499Z,101792.06
2023-05-05T15:30:35.502Z,101783.34
2023-05-05T15:33:02.307Z,101790.25
2023-05-05T15:35:29.187Z,101782.44
2023-05-05T15:37:55.923Z,101785.91
2023-05-05T15:40:23.042Z,101782.41
2023-05-05T15:42:52.709Z,101780.69
2023-05-05T15:45:19.578Z,101778.13
2023-05-05T15:47:46.414Z,101780.72
2023-05-05T15:50:14.131Z,101784.19
2023-05-05T15:52:40.792Z,101779.06
2023-05-05T15:55:08.648Z,101780.84
2023-05-05T15:57:35.745Z,101779.97
2023-05-05T16:00:02.695Z,101777.31
2023-05-05T16:02:34.448Z,101781.69
2023-05-05T16:05:01.350Z,101776.44
2023-05-05T16:07:28.114Z,101783.41
2023-05-05T16:09:55.053Z,101779.94
2023-05-05T16:12:21.812Z,101774.75
2023-05-05T16:14:48.649Z,101778.28
2023-05-05T16:17:15.367Z,101777.47
2023-05-05T16:19:42.161Z,101779.19
2023-05-05T16:22:09.084Z,101773.97
2023-05-05T16:24:35.918Z,101763.56
2023-05-05T16:27:02.727Z,101767.91
2023-05-05T16:29:29.714Z,101761.84
2023-05-05T16:31:56.479Z,101765.34
2023-05-05T16:34:23.367Z,101761.00
2023-05-05T16:36:50.079Z,101760.16
2023-05-05T16:39:17.116Z,101756.69
2023-05-05T16:41:43.815Z,101754.06
2023-05-05T16:44:10.545Z,101755.84
2023-05-05T16:46:37.658Z,101757.53
2023-05-05T16:49:04.727Z,101754.94
2023-05-05T16:51:31.638Z,101748.88
2023-05-05T16:53:58.352Z,101748.03
2023-05-05T16:56:25.113Z,101738.50
2023-05-05T16:58:52.475Z,101743.72
2023-05-05T17:01:19.203Z,101741.97
2023-05-05T17:03:45.990Z,101744.59
2023-05-05T17:06:13.119Z,101739.41
2023-05-05T17:08:40.079Z,101740.25
2023-05-05T17:11:06.848Z,101735.06
2023-05-05T17:13:33.716Z,101735.03
2023-05-05T17:16:00.504Z,101734.19
2023-05-05T17:18:27.316Z,101728.13
2023-05-05T17:20:54.076Z,101735.94
2023-05-05T17:23:21.400Z,101739.41
2023-05-05T17:25:48.706Z,101739.41
2023-05-05T17:28:17.261Z,101746.34
2023-05-05T17:30:44.128Z,101734.22
2023-05-05T17:33:11.005Z,101738.53
2023-05-05T17:35:38.009Z,101735.06
2023-05-05T17:38:04.934Z,101727.22
2023-05-05T17:40:31.666Z,101737.59
2023-05-05T17:42:58.471Z,101731.53
2023-05-05T17:45:25.216Z,101730.63
2023-05-05T17:47:52.046Z,101728.03
2023-05-05T17:50:18.943Z,101728.00
2023-05-05T17:52:46.572Z,101736.63
2023-05-05T17:55:13.618Z,101730.56
2023-05-05T17:57:40.497Z,101730.56
2023-05-05T18:00:08.946Z,101722.75
2023-05-05T18:02:42.057Z,101727.06
2023-05-05T18:05:10.049Z,101730.53
2023-05-05T18:07:38.690Z,101724.47
2023-05-05T18:10:07.267Z,101726.19
2023-05-05T18:12:34.381Z,101718.34
2023-05-05T18:15:01.706Z,101730.44
2023-05-05T18:17:28.526Z,101722.63
2023-05-05T18:19:55.296Z,101722.59
2023-05-05T18:22:22.048Z,101715.66
2023-05-05T18:24:48.923Z,101713.06
2023-05-05T18:27:16.021Z,101707.84
2023-05-05T18:29:42.830Z,101726.00
2023-05-05T18:32:09.598Z,101719.03
2023-05-05T18:34:36.347Z,101722.47
2023-05-05T18:37:03.064Z,101732.78
2023-05-05T18:39:30.376Z,101734.50
2023-05-05T18:41:57.119Z,101740.47
2023-05-05T18:44:23.988Z,101738.75
2023-05-05T18:46:51.511Z,101737.88
2023-05-05T18:49:18.309Z,101741.31
2023-05-05T18:51:55.325Z,101739.59
2023-05-05T18:54:32.599Z,101740.41
2023-05-05T18:56:59.434Z,101742.94
2023-05-05T18:59:26.361Z,101738.63
2023-05-05T19:01:54.986Z,101736.00
2023-05-05T19:04:31.429Z,101743.72
2023-05-05T19:06:59.611Z,101745.41
2023-05-05T19:09:26.461Z,101743.69
2023-05-05T19:11:53.514Z,101747.97
2023-05-05T19:14:20.365Z,101751.34
2023-05-05T19:16:47.261Z,101766.03
2023-05-05T19:19:14.418Z,101759.84
2023-05-05T19:21:41.325Z,101768.50
2023-05-05T19:24:09.426Z,101774.41
2023-05-05T19:26:36.390Z,101775.28
2023-05-05T19:29:03.358Z,101775.28
2023-05-05T19:31:31.408Z,101774.41
2023-05-05T19:34:01.275Z,101781.28
2023-05-05T19:36:28.525Z,101794.94
2023-05-05T19:38:56.275Z,101791.47
2023-05-05T19:41:23.586Z,101792.28
2023-05-05T19:43:50.456Z,101803.53
2023-05-05T19:46:17.711Z,101800.03
2023-05-05T19:48:44.652Z,101799.13
2023-05-05T19:51:11.833Z,101800.00
2023-05-05T19:53:40.233Z,101797.28
2023-05-05T19:56:07.516Z,101798.19
2023-05-05T19:59:01.627Z,101804.22
2023-05-05T20:01:29.435Z,101796.47
2023-05-05T20:03:57.398Z,101800.00
2023-05-05T20:06:24.649Z,101796.50
2023-05-05T20:08:52.346Z,101791.22
2023-05-05T20:11:20.197Z,101792.94
2023-05-05T20:13:47.900Z,101790.31
2023-05-05T20:16:15.075Z,101792.88
2023-05-05T20:18:41.878Z,101788.53
2023-05-05T20:21:08.828Z,101788.56
2023-05-05T20:23:36.710Z,101793.69
2023-05-05T20:26:03.641Z,101797.06
2023-05-05T20:28:31.776Z,101803.06
2023-05-05T20:30:58.640Z,101797.03
2023-05-05T20:33:25.457Z,101797.00
2023-05-05T20:35:52.182Z,101806.47
2023-05-05T20:38:18.938Z,101798.59
2023-05-05T20:40:45.774Z,101801.97
2023-05-05T20:43:12.739Z,101799.34
2023-05-05T20:45:39.477Z,101797.59
2023-05-05T20:48:09.810Z,101790.72
2023-05-05T20:50:40.791Z,101795.72
2023-05-05T20:53:09.225Z,101782.81
2023-05-05T20:55:36.177Z,101781.91
2023-05-05T20:58:04.213Z,101786.06
2023-05-05T21:00:31.526Z,101783.22
2023-05-05T21:02:58.424Z,101778.81
2023-05-05T21:05:26.048Z,101789.09
2023-05-05T21:07:53.817Z,101778.63
2023-05-05T21:10:21.048Z,101779.50
2023-05-05T21:12:47.921Z,101779.50
2023-05-05T21:15:16.616Z,101783.94
2023-05-05T21:17:43.465Z,101782.28
2023-05-05T21:20:10.957Z,101778.06
2023-05-05T21:22:37.927Z,101775.47
2023-05-05T21:25:17.842Z,101778.91
2023-05-05T21:27:45.021Z,101773.75
2023-05-05T21:30:12.381Z,101771.22
2023-05-05T21:32:40.775Z,101765.03
2023-05-05T21:35:08.719Z,101768.41
2023-05-05T21:37:38.106Z,101768.25
2023-05-05T21:40:06.454Z,101772.56
2023-05-05T21:42:33.273Z,101762.94
2023-05-05T21:45:00.007Z,101768.88
2023-05-05T21:47:27.405Z,101773.84
2023-05-05T21:49:54.058Z,101760.94
2023-05-05T21:52:20.928Z,101762.59
2023-05-05T21:54:47.825Z,101762.66
2023-05-05T21:57:14.668Z,101763.66
2023-05-05T21:59:41.417Z,101760.28
2023-05-05T22:02:08.368Z,101746.50
2023-05-05T22:04:35.169Z,101743.06
2023-05-05T22:07:02.175Z,101749.91
2023-05-05T22:09:28.967Z,101743.91
2023-05-05T22:11:55.824Z,101746.53
2023-05-05T22:14:22.670Z,101747.34
2023-05-05T22:16:49.584Z,101736.88
2023-05-05T22:19:16.383Z,101744.63
2023-05-05T22:21:43.525Z,101736.94
2023-05-05T22:24:10.345Z,101737.84
2023-05-05T22:26:39.811Z,101730.84
2023-05-05T22:29:06.556Z,101742.00
2023-05-05T22:31:33.342Z,101736.88
2023-05-05T22:34:00.189Z,101749.78
2023-05-05T22:36:27.576Z,101746.25
2023-05-05T22:38:54.479Z,101740.06
2023-05-05T22:41:21.216Z,101747.91
2023-05-05T22:43:49.256Z,101757.22
2023-05-05T22:46:15.981Z,101762.22
2023-05-05T22:48:43.535Z,101760.31
2023-05-05T22:51:13.528Z,101756.13
2023-05-05T22:53:40.526Z,101758.78
2023-05-05T22:56:07.417Z,101760.56
2023-05-05T22:58:34.233Z,101753.78
2023-05-05T23:01:00.956Z,101752.09
2023-05-05T23:03:27.679Z,101748.56
2023-05-05T23:05:54.370Z,101752.88
2023-05-05T23:08:21.760Z,101735.63
2023-05-05T23:10:48.498Z,101731.41
2023-05-05T23:13:15.243Z,101733.94
2023-05-05T23:15:42.096Z,101728.75
2023-05-05T23:18:09.113Z,101731.31
2023-05-05T23:20:35.918Z,101723.44
2023-05-05T23:23:02.790Z,101740.63
2023-05-05T23:25:29.460Z,101738.09
2023-05-05T23:27:56.348Z,101738.00
2023-05-05T23:30:25.549Z,101732.53
2023-05-05T23:32:52.552Z,101733.94
2023-05-05T23:35:19.408Z,101742.59
2023-05-05T23:37:46.182Z,101740.03
2023-05-05T23:40:12.991Z,101730.59
2023-05-05T23:42:39.775Z,101732.34
2023-05-05T23:45:07.192Z,101724.63
2023-05-05T23:47:34.126Z,101731.44
2023-05-05T23:50:00.940Z,101731.31
2023-05-05T23:52:27.917Z,101727.00
2023-05-05T23:57:22.137Z,101720.25
2023-05-05T23:59:48.950Z,101714.19
